sensor_id;sensor_type;location;lat;lon;timestamp;P1;durP1;ratioP1;P2;durP2;ratioP2
45065;SDS011;30830;53.704;10.004;2023-07-31T00:01:44;4.50;;;2.47;;
45065;SDS011;30830;53.704;10.004;2023-07-31T00:04:09;4.32;;;2.38;;
45065;SDS011;30830;53.704;10.004;2023-07-31T00:06:35;4.88;;;2.10;;
45065;SDS011;30830;53.704;10.004;2023-07-31T00:09:00;3.00;;;1.80;;
45065;SDS011;30830;53.704;10.004;2023-07-31T00:11:26;3.58;;;2.00;;
45065;SDS011;30830;53.704;10.004;2023-07-31T00:13:52;6.55;;;2.08;;
45065;SDS011;30830;53.704;10.004;2023-07-31T00:16:18;2.40;;;1.73;;
45065;SDS011;30830;53.704;10.004;2023-07-31T00:18:44;6.70;;;2.30;;
45065;SDS011;30830;53.704;10.004;2023-07-31T00:21:10;3.75;;;2.28;;
45065;SDS011;30830;53.704;10.004;2023-07-31T00:23:35;5.72;;;2.17;;
45065;SDS011;30830;53.704;10.004;2023-07-31T00:26:01;5.50;;;2.10;;
45065;SDS011;30830;53.704;10.004;2023-07-31T00:28:26;3.85;;;2.63;;
45065;SDS011;30830;53.704;10.004;2023-07-31T00:30:53;4.82;;;2.15;;
45065;SDS011;30830;53.704;10.004;2023-07-31T00:33:19;4.53;;;2.13;;
45065;SDS011;30830;53.704;10.004;2023-07-31T00:35:44;6.30;;;2.50;;
45065;SDS011;30830;53.704;10.004;2023-07-31T00:38:10;5.68;;;1.92;;
45065;SDS011;30830;53.704;10.004;2023-07-31T00:40:36;2.15;;;1.55;;
45065;SDS011;30830;53.704;10.004;2023-07-31T00:43:02;3.42;;;1.75;;
45065;SDS011;30830;53.704;10.004;2023-07-31T00:45:28;6.25;;;2.60;;
45065;SDS011;30830;53.704;10.004;2023-07-31T00:47:54;3.85;;;2.40;;
45065;SDS011;30830;53.704;10.004;2023-07-31T00:50:20;4.05;;;2.08;;
45065;SDS011;30830;53.704;10.004;2023-07-31T00:52:47;7.07;;;2.35;;
45065;SDS011;30830;53.704;10.004;2023-07-31T00:55:13;6.13;;;2.13;;
45065;SDS011;30830;53.704;10.004;2023-07-31T00:57:38;5.93;;;1.92;;
45065;SDS011;30830;53.704;10.004;2023-07-31T01:00:06;6.90;;;1.73;;
45065;SDS011;30830;53.704;10.004;2023-07-31T01:02:32;4.45;;;1.52;;
45065;SDS011;30830;53.704;10.004;2023-07-31T01:04:58;3.65;;;1.80;;
45065;SDS011;30830;53.704;10.004;2023-07-31T01:10:23;5.32;;;2.03;;
45065;SDS011;30830;53.704;10.004;2023-07-31T01:12:51;8.20;;;1.73;;
45065;SDS011;30830;53.704;10.004;2023-07-31T01:15:18;5.35;;;2.08;;
45065;SDS011;30830;53.704;10.004;2023-07-31T01:17:44;10.38;;;2.20;;
45065;SDS011;30830;53.704;10.004;2023-07-31T01:20:20;4.72;;;2.08;;
45065;SDS011;30830;53.704;10.004;2023-07-31T01:31:17;7.10;;;1.90;;
45065;SDS011;30830;53.704;10.004;2023-07-31T01:33:46;8.07;;;2.60;;
45065;SDS011;30830;53.704;10.004;2023-07-31T01:36:13;7.43;;;1.77;;
45065;SDS011;30830;53.704;10.004;2023-07-31T01:38:39;5.70;;;2.13;;
45065;SDS011;30830;53.704;10.004;2023-07-31T01:41:04;2.85;;;1.63;;
45065;SDS011;30830;53.704;10.004;2023-07-31T01:43:30;2.83;;;2.17;;
45065;SDS011;30830;53.704;10.004;2023-07-31T01:45:55;8.68;;;2.38;;
45065;SDS011;30830;53.704;10.004;2023-07-31T01:48:21;5.15;;;2.10;;
45065;SDS011;30830;53.704;10.004;2023-07-31T01:50:47;6.07;;;2.55;;
45065;SDS011;30830;53.704;10.004;2023-07-31T01:53:12;7.75;;;1.95;;
45065;SDS011;30830;53.704;10.004;2023-07-31T01:55:38;7.95;;;2.47;;
45065;SDS011;30830;53.704;10.004;2023-07-31T01:58:04;4.32;;;2.33;;
45065;SDS011;30830;53.704;10.004;2023-07-31T02:00:29;8.27;;;2.50;;
45065;SDS011;30830;53.704;10.004;2023-07-31T02:02:55;7.55;;;2.20;;
45065;SDS011;30830;53.704;10.004;2023-07-31T02:05:20;6.15;;;2.65;;
45065;SDS011;30830;53.704;10.004;2023-07-31T02:07:46;5.30;;;1.85;;
45065;SDS011;30830;53.704;10.004;2023-07-31T02:10:11;5.00;;;2.20;;
45065;SDS011;30830;53.704;10.004;2023-07-31T02:12:37;8.15;;;2.38;;
45065;SDS011;30830;53.704;10.004;2023-07-31T02:15:03;4.60;;;2.20;;
45065;SDS011;30830;53.704;10.004;2023-07-31T02:17:28;4.00;;;2.28;;
45065;SDS011;30830;53.704;10.004;2023-07-31T02:19:54;8.77;;;3.00;;
45065;SDS011;30830;53.704;10.004;2023-07-31T02:22:20;3.97;;;2.40;;
45065;SDS011;30830;53.704;10.004;2023-07-31T02:24:45;5.57;;;2.20;;
45065;SDS011;30830;53.704;10.004;2023-07-31T02:27:11;4.60;;;2.47;;
45065;SDS011;30830;53.704;10.004;2023-07-31T02:29:37;11.60;;;3.30;;
45065;SDS011;30830;53.704;10.004;2023-07-31T02:32:02;5.97;;;2.47;;
45065;SDS011;30830;53.704;10.004;2023-07-31T02:34:28;6.65;;;2.78;;
45065;SDS011;30830;53.704;10.004;2023-07-31T02:36:54;4.93;;;2.25;;
45065;SDS011;30830;53.704;10.004;2023-07-31T02:39:19;6.78;;;2.60;;
45065;SDS011;30830;53.704;10.004;2023-07-31T02:41:45;2.25;;;2.05;;
45065;SDS011;30830;53.704;10.004;2023-07-31T02:44:11;5.57;;;2.88;;
45065;SDS011;30830;53.704;10.004;2023-07-31T02:46:39;6.85;;;2.63;;
45065;SDS011;30830;53.704;10.004;2023-07-31T02:49:05;8.63;;;2.60;;
45065;SDS011;30830;53.704;10.004;2023-07-31T02:51:30;8.43;;;2.65;;
45065;SDS011;30830;53.704;10.004;2023-07-31T02:53:56;3.92;;;2.45;;
45065;SDS011;30830;53.704;10.004;2023-07-31T02:56:21;5.82;;;2.45;;
45065;SDS011;30830;53.704;10.004;2023-07-31T02:58:47;6.80;;;2.92;;
45065;SDS011;30830;53.704;10.004;2023-07-31T03:01:12;5.32;;;2.25;;
45065;SDS011;30830;53.704;10.004;2023-07-31T03:03:38;8.13;;;2.90;;
45065;SDS011;30830;53.704;10.004;2023-07-31T03:06:04;6.40;;;2.28;;
45065;SDS011;30830;53.704;10.004;2023-07-31T03:08:29;6.38;;;2.50;;
45065;SDS011;30830;53.704;10.004;2023-07-31T03:10:56;4.95;;;2.55;;
45065;SDS011;30830;53.704;10.004;2023-07-31T03:13:21;5.53;;;2.78;;
45065;SDS011;30830;53.704;10.004;2023-07-31T03:15:47;3.33;;;2.63;;
45065;SDS011;30830;53.704;10.004;2023-07-31T03:18:12;6.07;;;2.42;;
45065;SDS011;30830;53.704;10.004;2023-07-31T03:20:41;6.35;;;3.17;;
45065;SDS011;30830;53.704;10.004;2023-07-31T03:23:08;4.05;;;2.45;;
45065;SDS011;30830;53.704;10.004;2023-07-31T03:25:33;4.97;;;2.67;;
45065;SDS011;30830;53.704;10.004;2023-07-31T03:27:59;7.72;;;3.08;;
45065;SDS011;30830;53.704;10.004;2023-07-31T03:30:24;10.80;;;2.83;;
45065;SDS011;30830;53.704;10.004;2023-07-31T03:32:50;6.88;;;3.20;;
45065;SDS011;30830;53.704;10.004;2023-07-31T03:35:15;4.00;;;2.35;;
45065;SDS011;30830;53.704;10.004;2023-07-31T03:37:41;3.88;;;2.90;;
45065;SDS011;30830;53.704;10.004;2023-07-31T03:40:07;7.00;;;2.70;;
45065;SDS011;30830;53.704;10.004;2023-07-31T03:42:33;6.65;;;3.50;;
45065;SDS011;30830;53.704;10.004;2023-07-31T03:44:59;5.55;;;2.53;;
45065;SDS011;30830;53.704;10.004;2023-07-31T03:47:24;6.93;;;3.00;;
45065;SDS011;30830;53.704;10.004;2023-07-31T03:49:51;4.25;;;2.35;;
45065;SDS011;30830;53.704;10.004;2023-07-31T03:52:16;6.03;;;3.15;;
45065;SDS011;30830;53.704;10.004;2023-07-31T03:54:42;7.90;;;2.88;;
45065;SDS011;30830;53.704;10.004;2023-07-31T03:57:09;5.15;;;3.03;;
45065;SDS011;30830;53.704;10.004;2023-07-31T03:59:35;6.90;;;2.95;;
45065;SDS011;30830;53.704;10.004;2023-07-31T04:02:00;5.82;;;2.88;;
45065;SDS011;30830;53.704;10.004;2023-07-31T04:04:26;7.00;;;2.63;;
45065;SDS011;30830;53.704;10.004;2023-07-31T04:06:51;6.85;;;3.47;;
45065;SDS011;30830;53.704;10.004;2023-07-31T04:09:17;4.05;;;3.00;;
45065;SDS011;30830;53.704;10.004;2023-07-31T04:11:42;6.32;;;2.88;;
45065;SDS011;30830;53.704;10.004;2023-07-31T04:14:08;4.72;;;2.80;;
45065;SDS011;30830;53.704;10.004;2023-07-31T04:16:34;3.53;;;2.45;;
45065;SDS011;30830;53.704;10.004;2023-07-31T04:18:59;4.50;;;3.47;;
45065;SDS011;30830;53.704;10.004;2023-07-31T04:21:25;6.43;;;2.88;;
45065;SDS011;30830;53.704;10.004;2023-07-31T04:23:50;4.55;;;2.67;;
45065;SDS011;30830;53.704;10.004;2023-07-31T04:26:16;3.38;;;2.95;;
45065;SDS011;30830;53.704;10.004;2023-07-31T04:28:41;7.82;;;3.45;;
45065;SDS011;30830;53.704;10.004;2023-07-31T04:31:07;3.28;;;2.65;;
45065;SDS011;30830;53.704;10.004;2023-07-31T04:33:33;6.57;;;2.92;;
45065;SDS011;30830;53.704;10.004;2023-07-31T04:35:59;4.85;;;3.15;;
45065;SDS011;30830;53.704;10.004;2023-07-31T04:38:25;5.05;;;2.92;;
45065;SDS011;30830;53.704;10.004;2023-07-31T04:40:52;3.33;;;2.90;;
45065;SDS011;30830;53.704;10.004;2023-07-31T04:43:17;5.97;;;2.72;;
45065;SDS011;30830;53.704;10.004;2023-07-31T04:45:46;4.28;;;3.00;;
45065;SDS011;30830;53.704;10.004;2023-07-31T04:48:12;4.10;;;2.83;;
45065;SDS011;30830;53.704;10.004;2023-07-31T04:50:38;4.03;;;2.80;;
45065;SDS011;30830;53.704;10.004;2023-07-31T04:53:03;4.82;;;2.95;;
45065;SDS011;30830;53.704;10.004;2023-07-31T04:55:29;4.40;;;2.90;;
45065;SDS011;30830;53.704;10.004;2023-07-31T04:57:55;4.13;;;2.65;;
45065;SDS011;30830;53.704;10.004;2023-07-31T05:00:20;3.90;;;2.40;;
45065;SDS011;30830;53.704;10.004;2023-07-31T05:02:46;3.05;;;2.63;;
45065;SDS011;30830;53.704;10.004;2023-07-31T05:05:12;3.42;;;2.33;;
45065;SDS011;30830;53.704;10.004;2023-07-31T05:07:37;2.45;;;2.22;;
45065;SDS011;30830;53.704;10.004;2023-07-31T05:10:03;2.90;;;2.15;;
45065;SDS011;30830;53.704;10.004;2023-07-31T05:12:29;2.70;;;2.08;;
45065;SDS011;30830;53.704;10.004;2023-07-31T05:14:54;2.85;;;2.50;;
45065;SDS011;30830;53.704;10.004;2023-07-31T05:17:22;5.75;;;2.95;;
45065;SDS011;30830;53.704;10.004;2023-07-31T05:19:47;2.25;;;2.05;;
45065;SDS011;30830;53.704;10.004;2023-07-31T05:22:13;2.47;;;2.28;;
45065;SDS011;30830;53.704;10.004;2023-07-31T05:24:38;2.50;;;2.30;;
45065;SDS011;30830;53.704;10.004;2023-07-31T05:27:04;2.97;;;2.30;;
45065;SDS011;30830;53.704;10.004;2023-07-31T05:29:30;2.53;;;2.08;;
45065;SDS011;30830;53.704;10.004;2023-07-31T05:31:56;2.22;;;1.80;;
45065;SDS011;30830;53.704;10.004;2023-07-31T05:34:21;3.58;;;2.38;;
45065;SDS011;30830;53.704;10.004;2023-07-31T05:36:47;1.98;;;1.77;;
45065;SDS011;30830;53.704;10.004;2023-07-31T05:39:12;3.50;;;2.28;;
45065;SDS011;30830;53.704;10.004;2023-07-31T05:41:38;2.47;;;2.20;;
45065;SDS011;30830;53.704;10.004;2023-07-31T05:44:03;2.47;;;2.22;;
45065;SDS011;30830;53.704;10.004;2023-07-31T05:46:29;2.47;;;1.92;;
45065;SDS011;30830;53.704;10.004;2023-07-31T05:48:56;2.22;;;2.03;;
45065;SDS011;30830;53.704;10.004;2023-07-31T05:51:21;2.17;;;1.75;;
45065;SDS011;30830;53.704;10.004;2023-07-31T05:53:47;3.33;;;2.17;;
45065;SDS011;30830;53.704;10.004;2023-07-31T05:56:12;2.80;;;2.50;;
45065;SDS011;30830;53.704;10.004;2023-07-31T05:58:38;3.40;;;1.95;;
45065;SDS011;30830;53.704;10.004;2023-07-31T06:01:03;1.70;;;1.50;;
45065;SDS011;30830;53.704;10.004;2023-07-31T06:03:29;2.22;;;1.88;;
45065;SDS011;30830;53.704;10.004;2023-07-31T06:05:55;2.05;;;1.75;;
45065;SDS011;30830;53.704;10.004;2023-07-31T06:08:21;1.92;;;1.48;;
45065;SDS011;30830;53.704;10.004;2023-07-31T06:10:46;3.03;;;1.67;;
45065;SDS011;30830;53.704;10.004;2023-07-31T06:13:12;1.95;;;1.70;;
45065;SDS011;30830;53.704;10.004;2023-07-31T06:15:38;2.40;;;1.75;;
45065;SDS011;30830;53.704;10.004;2023-07-31T06:18:03;1.83;;;1.70;;
45065;SDS011;30830;53.704;10.004;2023-07-31T06:20:32;1.77;;;1.33;;
45065;SDS011;30830;53.704;10.004;2023-07-31T06:22:58;2.55;;;1.95;;
45065;SDS011;30830;53.704;10.004;2023-07-31T06:25:24;1.50;;;1.40;;
45065;SDS011;30830;53.704;10.004;2023-07-31T06:27:51;1.33;;;1.23;;
45065;SDS011;30830;53.704;10.004;2023-07-31T06:30:16;1.85;;;1.60;;
45065;SDS011;30830;53.704;10.004;2023-07-31T06:32:42;1.40;;;1.30;;
45065;SDS011;30830;53.704;10.004;2023-07-31T06:35:08;1.40;;;1.30;;
45065;SDS011;30830;53.704;10.004;2023-07-31T06:37:33;4.28;;;1.60;;
45065;SDS011;30830;53.704;10.004;2023-07-31T06:39:59;3.20;;;1.30;;
45065;SDS011;30830;53.704;10.004;2023-07-31T06:42:25;2.00;;;1.65;;
45065;SDS011;30830;53.704;10.004;2023-07-31T06:44:50;2.22;;;1.10;;
45065;SDS011;30830;53.704;10.004;2023-07-31T06:47:16;2.65;;;1.38;;
45065;SDS011;30830;53.704;10.004;2023-07-31T06:49:42;2.70;;;2.35;;
45065;SDS011;30830;53.704;10.004;2023-07-31T06:52:07;3.00;;;1.50;;
45065;SDS011;30830;53.704;10.004;2023-07-31T06:54:33;2.83;;;1.30;;
45065;SDS011;30830;53.704;10.004;2023-07-31T06:56:58;1.42;;;1.30;;
45065;SDS011;30830;53.704;10.004;2023-07-31T06:59:24;1.42;;;1.33;;
45065;SDS011;30830;53.704;10.004;2023-07-31T07:01:49;1.58;;;1.35;;
45065;SDS011;30830;53.704;10.004;2023-07-31T07:04:15;1.75;;;1.60;;
45065;SDS011;30830;53.704;10.004;2023-07-31T07:06:41;1.75;;;1.60;;
45065;SDS011;30830;53.704;10.004;2023-07-31T07:09:07;1.65;;;1.52;;
45065;SDS011;30830;53.704;10.004;2023-07-31T07:11:33;1.90;;;1.42;;
45065;SDS011;30830;53.704;10.004;2023-07-31T07:13:59;4.47;;;1.42;;
45065;SDS011;30830;53.704;10.004;2023-07-31T07:16:25;1.38;;;1.20;;
45065;SDS011;30830;53.704;10.004;2023-07-31T07:18:51;1.73;;;1.63;;
45065;SDS011;30830;53.704;10.004;2023-07-31T07:21:16;1.80;;;1.58;;
45065;SDS011;30830;53.704;10.004;2023-07-31T07:23:43;1.50;;;1.30;;
45065;SDS011;30830;53.704;10.004;2023-07-31T07:26:08;1.60;;;1.50;;
45065;SDS011;30830;53.704;10.004;2023-07-31T07:28:34;1.80;;;1.70;;
45065;SDS011;30830;53.704;10.004;2023-07-31T07:30:59;1.63;;;1.52;;
45065;SDS011;30830;53.704;10.004;2023-07-31T07:33:25;2.63;;;1.58;;
45065;SDS011;30830;53.704;10.004;2023-07-31T07:35:51;4.60;;;3.33;;
45065;SDS011;30830;53.704;10.004;2023-07-31T07:38:16;1.70;;;1.33;;
45065;SDS011;30830;53.704;10.004;2023-07-31T07:40:44;3.08;;;2.03;;
45065;SDS011;30830;53.704;10.004;2023-07-31T07:43:11;1.85;;;1.38;;
45065;SDS011;30830;53.704;10.004;2023-07-31T07:45:37;2.05;;;1.40;;
45065;SDS011;30830;53.704;10.004;2023-07-31T07:48:03;1.52;;;1.40;;
45065;SDS011;30830;53.704;10.004;2023-07-31T07:50:28;3.75;;;1.35;;
45065;SDS011;30830;53.704;10.004;2023-07-31T07:52:54;2.50;;;1.30;;
45065;SDS011;30830;53.704;10.004;2023-07-31T07:55:19;1.40;;;1.30;;
45065;SDS011;30830;53.704;10.004;2023-07-31T07:57:45;1.40;;;1.30;;
45065;SDS011;30830;53.704;10.004;2023-07-31T08:00:11;1.23;;;1.13;;
45065;SDS011;30830;53.704;10.004;2023-07-31T08:02:37;2.83;;;1.30;;
45065;SDS011;30830;53.704;10.004;2023-07-31T08:05:03;1.67;;;1.08;;
45065;SDS011;30830;53.704;10.004;2023-07-31T08:07:29;2.70;;;1.40;;
45065;SDS011;30830;53.704;10.004;2023-07-31T08:09:55;1.40;;;1.30;;
45065;SDS011;30830;53.704;10.004;2023-07-31T08:12:20;2.50;;;1.42;;
45065;SDS011;30830;53.704;10.004;2023-07-31T08:14:46;1.30;;;1.20;;
45065;SDS011;30830;53.704;10.004;2023-07-31T08:17:11;4.43;;;1.70;;
45065;SDS011;30830;53.704;10.004;2023-07-31T08:19:37;1.60;;;1.50;;
45065;SDS011;30830;53.704;10.004;2023-07-31T08:22:03;1.50;;;1.40;;
45065;SDS011;30830;53.704;10.004;2023-07-31T08:24:28;2.95;;;1.50;;
45065;SDS011;30830;53.704;10.004;2023-07-31T08:26:54;3.97;;;1.83;;
45065;SDS011;30830;53.704;10.004;2023-07-31T08:29:31;4.15;;;1.55;;
45065;SDS011;30830;53.704;10.004;2023-07-31T08:31:57;1.63;;;1.52;;
45065;SDS011;30830;53.704;10.004;2023-07-31T08:34:23;6.80;;;1.60;;
45065;SDS011;30830;53.704;10.004;2023-07-31T08:36:49;1.35;;;1.25;;
45065;SDS011;30830;53.704;10.004;2023-07-31T08:39:17;3.90;;;1.30;;
45065;SDS011;30830;53.704;10.004;2023-07-31T08:41:45;2.45;;;1.13;;
45065;SDS011;30830;53.704;10.004;2023-07-31T08:44:14;1.80;;;1.48;;
45065;SDS011;30830;53.704;10.004;2023-07-31T08:46:45;1.85;;;1.55;;
45065;SDS011;30830;53.704;10.004;2023-07-31T08:49:12;2.40;;;1.25;;
45065;SDS011;30830;53.704;10.004;2023-07-31T08:51:38;1.48;;;1.38;;
45065;SDS011;30830;53.704;10.004;2023-07-31T08:54:06;1.27;;;1.20;;
45065;SDS011;30830;53.704;10.004;2023-07-31T08:56:32;1.42;;;1.20;;
45065;SDS011;30830;53.704;10.004;2023-07-31T08:58:59;1.27;;;1.17;;
45065;SDS011;30830;53.704;10.004;2023-07-31T09:01:27;1.30;;;1.20;;
45065;SDS011;30830;53.704;10.004;2023-07-31T09:03:54;3.08;;;1.88;;
45065;SDS011;30830;53.704;10.004;2023-07-31T09:06:21;2.20;;;1.25;;
45065;SDS011;30830;53.704;10.004;2023-07-31T09:08:50;1.73;;;1.05;;
45065;SDS011;30830;53.704;10.004;2023-07-31T09:11:17;1.33;;;1.23;;
45065;SDS011;30830;53.704;10.004;2023-07-31T09:13:42;1.58;;;1.25;;
45065;SDS011;30830;53.704;10.004;2023-07-31T09:16:08;1.30;;;1.20;;
45065;SDS011;30830;53.704;10.004;2023-07-31T09:21:33;1.48;;;1.20;;
45065;SDS011;30830;53.704;10.004;2023-07-31T09:24:04;2.50;;;1.17;;
45065;SDS011;30830;53.704;10.004;2023-07-31T09:26:34;2.38;;;0.90;;
45065;SDS011;30830;53.704;10.004;2023-07-31T09:29:03;1.50;;;0.93;;
45065;SDS011;30830;53.704;10.004;2023-07-31T09:31:42;1.20;;;0.95;;
45065;SDS011;30830;53.704;10.004;2023-07-31T09:34:11;1.13;;;0.88;;
45065;SDS011;30830;53.704;10.004;2023-07-31T09:36:42;1.00;;;0.70;;
45065;SDS011;30830;53.704;10.004;2023-07-31T09:39:10;1.50;;;0.80;;
45065;SDS011;30830;53.704;10.004;2023-07-31T09:41:37;1.20;;;0.90;;
45065;SDS011;30830;53.704;10.004;2023-07-31T09:44:06;0.77;;;0.70;;
45065;SDS011;30830;53.704;10.004;2023-07-31T09:46:33;2.83;;;0.90;;
45065;SDS011;30830;53.704;10.004;2023-07-31T09:49:10;0.70;;;0.70;;
45065;SDS011;30830;53.704;10.004;2023-07-31T09:51:38;3.45;;;0.98;;
45065;SDS011;30830;53.704;10.004;2023-07-31T09:54:11;0.73;;;0.70;;
45065;SDS011;30830;53.704;10.004;2023-07-31T09:56:42;0.60;;;0.60;;
45065;SDS011;30830;53.704;10.004;2023-07-31T09:59:16;1.13;;;1.02;;
45065;SDS011;30830;53.704;10.004;2023-07-31T10:01:44;1.33;;;0.80;;
45065;SDS011;30830;53.704;10.004;2023-07-31T10:04:11;2.03;;;0.60;;
45065;SDS011;30830;53.704;10.004;2023-07-31T10:06:38;0.80;;;0.60;;
45065;SDS011;30830;53.704;10.004;2023-07-31T10:09:05;0.52;;;0.45;;
45065;SDS011;30830;53.704;10.004;2023-07-31T10:11:43;0.75;;;0.68;;
45065;SDS011;30830;53.704;10.004;2023-07-31T10:14:20;1.10;;;0.90;;
45065;SDS011;30830;53.704;10.004;2023-07-31T10:16:46;1.55;;;0.90;;
45065;SDS011;30830;53.704;10.004;2023-07-31T10:19:12;0.73;;;0.70;;
45065;SDS011;30830;53.704;10.004;2023-07-31T10:21:38;1.10;;;0.80;;
45065;SDS011;30830;53.704;10.004;2023-07-31T10:24:04;0.85;;;0.70;;
45065;SDS011;30830;53.704;10.004;2023-07-31T10:26:33;0.95;;;0.68;;
45065;SDS011;30830;53.704;10.004;2023-07-31T10:29:02;3.30;;;1.30;;
45065;SDS011;30830;53.704;10.004;2023-07-31T10:31:28;0.70;;;0.63;;
45065;SDS011;30830;53.704;10.004;2023-07-31T10:33:54;1.25;;;1.00;;
45065;SDS011;30830;53.704;10.004;2023-07-31T10:36:22;0.63;;;0.52;;
45065;SDS011;30830;53.704;10.004;2023-07-31T10:38:48;0.68;;;0.50;;
45065;SDS011;30830;53.704;10.004;2023-07-31T10:41:15;0.73;;;0.60;;
45065;SDS011;30830;53.704;10.004;2023-07-31T10:43:41;0.60;;;0.50;;
45065;SDS011;30830;53.704;10.004;2023-07-31T10:46:07;0.73;;;0.73;;
45065;SDS011;30830;53.704;10.004;2023-07-31T10:48:40;0.90;;;0.63;;
45065;SDS011;30830;53.704;10.004;2023-07-31T10:51:15;0.55;;;0.35;;
45065;SDS011;30830;53.704;10.004;2023-07-31T10:53:44;0.88;;;0.52;;
45065;SDS011;30830;53.704;10.004;2023-07-31T10:56:10;1.65;;;0.50;;
45065;SDS011;30830;53.704;10.004;2023-07-31T10:58:44;1.23;;;0.70;;
45065;SDS011;30830;53.704;10.004;2023-07-31T11:01:09;0.50;;;0.32;;
45065;SDS011;30830;53.704;10.004;2023-07-31T11:03:48;0.45;;;0.45;;
45065;SDS011;30830;53.704;10.004;2023-07-31T11:06:17;0.50;;;0.50;;
45065;SDS011;30830;53.704;10.004;2023-07-31T11:08:46;0.45;;;0.35;;
45065;SDS011;30830;53.704;10.004;2023-07-31T11:11:14;0.38;;;0.30;;
45065;SDS011;30830;53.704;10.004;2023-07-31T11:13:51;0.90;;;0.20;;
45065;SDS011;30830;53.704;10.004;2023-07-31T11:16:18;0.75;;;0.30;;
45065;SDS011;30830;53.704;10.004;2023-07-31T11:18:46;0.30;;;0.20;;
45065;SDS011;30830;53.704;10.004;2023-07-31T11:21:17;0.65;;;0.30;;
45065;SDS011;30830;53.704;10.004;2023-07-31T11:23:47;0.45;;;0.30;;
45065;SDS011;30830;53.704;10.004;2023-07-31T11:26:15;0.40;;;0.30;;
45065;SDS011;30830;53.704;10.004;2023-07-31T11:28:41;1.70;;;0.45;;
45065;SDS011;30830;53.704;10.004;2023-07-31T11:31:10;2.25;;;0.85;;
45065;SDS011;30830;53.704;10.004;2023-07-31T11:33:36;1.95;;;0.43;;
45065;SDS011;30830;53.704;10.004;2023-07-31T11:36:01;1.10;;;0.32;;
45065;SDS011;30830;53.704;10.004;2023-07-31T11:38:28;0.38;;;0.30;;
45065;SDS011;30830;53.704;10.004;2023-07-31T11:40:58;1.63;;;0.68;;
45065;SDS011;30830;53.704;10.004;2023-07-31T11:43:25;1.05;;;0.43;;
45065;SDS011;30830;53.704;10.004;2023-07-31T11:45:52;0.70;;;0.60;;
45065;SDS011;30830;53.704;10.004;2023-07-31T11:50:45;0.65;;;0.50;;
45065;SDS011;30830;53.704;10.004;2023-07-31T11:53:12;1.30;;;0.40;;
45065;SDS011;30830;53.704;10.004;2023-07-31T11:55:38;0.30;;;0.30;;
45065;SDS011;30830;53.704;10.004;2023-07-31T11:58:04;0.85;;;0.38;;
45065;SDS011;30830;53.704;10.004;2023-07-31T12:00:30;0.40;;;0.40;;
45065;SDS011;30830;53.704;10.004;2023-07-31T12:02:56;0.60;;;0.50;;
45065;SDS011;30830;53.704;10.004;2023-07-31T12:05:22;0.88;;;0.50;;
45065;SDS011;30830;53.704;10.004;2023-07-31T12:07:52;0.35;;;0.35;;
45065;SDS011;30830;53.704;10.004;2023-07-31T12:10:23;0.75;;;0.38;;
45065;SDS011;30830;53.704;10.004;2023-07-31T12:12:59;0.45;;;0.30;;
45065;SDS011;30830;53.704;10.004;2023-07-31T12:18:07;0.70;;;0.50;;
45065;SDS011;30830;53.704;10.004;2023-07-31T12:21:27;0.40;;;0.40;;
45065;SDS011;30830;53.704;10.004;2023-07-31T12:23:35;0.30;;;0.28;;
45065;SDS011;30830;53.704;10.004;2023-07-31T12:26:16;0.30;;;0.30;;
45065;SDS011;30830;53.704;10.004;2023-07-31T12:28:47;0.82;;;0.73;;
45065;SDS011;30830;53.704;10.004;2023-07-31T12:31:15;0.77;;;0.50;;
45065;SDS011;30830;53.704;10.004;2023-07-31T12:33:45;0.70;;;0.45;;
45065;SDS011;30830;53.704;10.004;2023-07-31T12:36:13;0.47;;;0.47;;
45065;SDS011;30830;53.704;10.004;2023-07-31T12:38:44;0.32;;;0.32;;
45065;SDS011;30830;53.704;10.004;2023-07-31T12:41:21;1.95;;;0.50;;
45065;SDS011;30830;53.704;10.004;2023-07-31T12:43:46;1.55;;;0.63;;
45065;SDS011;30830;53.704;10.004;2023-07-31T12:46:12;1.52;;;0.70;;
45065;SDS011;30830;53.704;10.004;2023-07-31T12:48:38;0.60;;;0.32;;
45065;SDS011;30830;53.704;10.004;2023-07-31T12:51:06;4.75;;;0.75;;
45065;SDS011;30830;53.704;10.004;2023-07-31T12:53:32;1.40;;;0.60;;
45065;SDS011;30830;53.704;10.004;2023-07-31T12:56:01;0.55;;;0.50;;
45065;SDS011;30830;53.704;10.004;2023-07-31T12:58:27;0.63;;;0.40;;
45065;SDS011;30830;53.704;10.004;2023-07-31T13:00:53;0.95;;;0.50;;
45065;SDS011;30830;53.704;10.004;2023-07-31T13:03:18;0.98;;;0.60;;
45065;SDS011;30830;53.704;10.004;2023-07-31T13:05:44;2.33;;;0.70;;
45065;SDS011;30830;53.704;10.004;2023-07-31T13:08:09;0.47;;;0.30;;
45065;SDS011;30830;53.704;10.004;2023-07-31T13:10:36;3.33;;;0.40;;
45065;SDS011;30830;53.704;10.004;2023-07-31T13:13:02;0.45;;;0.35;;
45065;SDS011;30830;53.704;10.004;2023-07-31T13:15:27;1.45;;;0.50;;
45065;SDS011;30830;53.704;10.004;2023-07-31T13:17:53;0.50;;;0.50;;
45065;SDS011;30830;53.704;10.004;2023-07-31T13:20:19;0.77;;;0.70;;
45065;SDS011;30830;53.704;10.004;2023-07-31T13:22:44;0.40;;;0.40;;
45065;SDS011;30830;53.704;10.004;2023-07-31T13:25:10;1.35;;;0.52;;
45065;SDS011;30830;53.704;10.004;2023-07-31T13:27:35;0.57;;;0.38;;
45065;SDS011;30830;53.704;10.004;2023-07-31T13:30:01;1.30;;;0.60;;
45065;SDS011;30830;53.704;10.004;2023-07-31T13:32:27;0.60;;;0.50;;
45065;SDS011;30830;53.704;10.004;2023-07-31T13:34:52;0.98;;;0.73;;
45065;SDS011;30830;53.704;10.004;2023-07-31T13:37:18;1.90;;;1.05;;
45065;SDS011;30830;53.704;10.004;2023-07-31T13:39:44;2.25;;;0.70;;
45065;SDS011;30830;53.704;10.004;2023-07-31T13:42:09;0.52;;;0.50;;
45065;SDS011;30830;53.704;10.004;2023-07-31T13:44:40;0.60;;;0.50;;
45065;SDS011;30830;53.704;10.004;2023-07-31T13:47:06;1.08;;;0.60;;
45065;SDS011;30830;53.704;10.004;2023-07-31T13:49:32;0.55;;;0.55;;
45065;SDS011;30830;53.704;10.004;2023-07-31T13:51:59;1.35;;;0.60;;
45065;SDS011;30830;53.704;10.004;2023-07-31T13:54:25;0.60;;;0.50;;
45065;SDS011;30830;53.704;10.004;2023-07-31T13:56:51;0.52;;;0.50;;
45065;SDS011;30830;53.704;10.004;2023-07-31T13:59:19;0.52;;;0.40;;
45065;SDS011;30830;53.704;10.004;2023-07-31T14:01:45;0.40;;;0.40;;
45065;SDS011;30830;53.704;10.004;2023-07-31T14:04:11;0.90;;;0.40;;
45065;SDS011;30830;53.704;10.004;2023-07-31T14:06:37;0.50;;;0.40;;
45065;SDS011;30830;53.704;10.004;2023-07-31T14:09:02;0.50;;;0.50;;
45065;SDS011;30830;53.704;10.004;2023-07-31T14:11:28;0.80;;;0.70;;
45065;SDS011;30830;53.704;10.004;2023-07-31T14:13:56;0.73;;;0.60;;
45065;SDS011;30830;53.704;10.004;2023-07-31T14:16:22;1.05;;;0.50;;
45065;SDS011;30830;53.704;10.004;2023-07-31T14:18:48;0.70;;;0.50;;
45065;SDS011;30830;53.704;10.004;2023-07-31T14:21:13;1.58;;;0.73;;
45065;SDS011;30830;53.704;10.004;2023-07-31T14:23:39;0.90;;;0.60;;
45065;SDS011;30830;53.704;10.004;2023-07-31T14:26:11;0.75;;;0.35;;
45065;SDS011;30830;53.704;10.004;2023-07-31T14:28:37;1.02;;;0.40;;
45065;SDS011;30830;53.704;10.004;2023-07-31T14:31:03;1.08;;;0.60;;
45065;SDS011;30830;53.704;10.004;2023-07-31T14:33:32;1.23;;;0.70;;
45065;SDS011;30830;53.704;10.004;2023-07-31T14:35:57;0.50;;;0.50;;
45065;SDS011;30830;53.704;10.004;2023-07-31T14:38:23;1.10;;;0.80;;
45065;SDS011;30830;53.704;10.004;2023-07-31T14:40:49;0.40;;;0.30;;
45065;SDS011;30830;53.704;10.004;2023-07-31T14:43:15;0.80;;;0.32;;
45065;SDS011;30830;53.704;10.004;2023-07-31T14:45:40;2.53;;;1.00;;
45065;SDS011;30830;53.704;10.004;2023-07-31T14:48:06;1.40;;;0.90;;
45065;SDS011;30830;53.704;10.004;2023-07-31T14:50:32;0.65;;;0.57;;